createdAt,value
2023-04-16T00:00:24.952Z,26.88
2023-04-16T00:01:24.980Z,29.18
2023-04-16T00:02:25.094Z,28.05
2023-04-16T00:03:25.244Z,26.96
2023-04-16T00:04:25.288Z,27.33
2023-04-16T00:05:25.105Z,28.31
2023-04-16T00:06:25.140Z,28.09
2023-04-16T00:07:25.171Z,28.43
2023-04-16T00:08:25.212Z,28.60
2023-04-16T00:09:25.229Z,28.92
2023-04-16T00:10:25.270Z,29.99
2023-04-16T00:11:25.309Z,28.35
2023-04-16T00:12:25.344Z,29.30
2023-04-16T00:13:25.373Z,29.08
2023-04-16T00:14:25.393Z,30.49
2023-04-16T00:15:25.428Z,27.57
2023-04-16T00:16:25.518Z,29.03
2023-04-16T00:17:25.515Z,28.41
2023-04-16T00:18:25.543Z,28.57
2023-04-16T00:19:25.566Z,28.46
2023-04-16T00:20:25.590Z,25.97
2023-04-16T00:21:25.626Z,29.35
2023-04-16T00:22:25.653Z,29.10
2023-04-16T00:23:25.695Z,28.80
2023-04-16T00:24:25.724Z,28.20
2023-04-16T00:25:25.763Z,27.37
2023-04-16T00:26:25.803Z,29.41
2023-04-16T00:27:25.829Z,27.80
2023-04-16T00:28:25.858Z,28.21
2023-04-16T00:29:25.889Z,29.83
2023-04-16T00:30:25.928Z,28.10
2023-04-16T00:31:25.986Z,26.88
2023-04-16T00:32:26.819Z,27.50
2023-04-16T00:33:26.039Z,28.59
2023-04-16T00:34:26.057Z,28.52
2023-04-16T00:35:26.094Z,29.65
2023-04-16T00:36:26.123Z,26.19
2023-04-16T00:37:26.164Z,26.80
2023-04-16T00:38:26.193Z,27.01
2023-04-16T00:39:26.256Z,28.27
2023-04-16T00:40:26.270Z,25.83
2023-04-16T00:41:26.301Z,28.38
2023-04-16T00:42:26.368Z,28.81
2023-04-16T00:43:26.370Z,29.96
2023-04-16T00:44:26.404Z,28.70
2023-04-16T00:45:26.460Z,27.84
2023-04-16T00:46:26.497Z,30.93
2023-04-16T00:47:26.550Z,25.91
2023-04-16T00:48:26.553Z,28.44
2023-04-16T00:49:26.584Z,29.11
2023-04-16T00:50:26.630Z,29.24
2023-04-16T00:51:26.668Z,28.19
2023-04-16T00:52:26.704Z,28.30
2023-04-16T00:53:26.734Z,29.99
2023-04-16T00:54:26.765Z,27.32
2023-04-16T00:55:26.802Z,28.93
2023-04-16T00:56:26.854Z,29.29
2023-04-16T00:57:26.879Z,27.90
2023-04-16T00:58:26.914Z,28.13
2023-04-16T00:59:26.955Z,31.33
2023-04-16T01:00:27.010Z,25.98
2023-04-16T01:01:27.069Z,30.95
2023-04-16T01:02:27.168Z,26.54
2023-04-16T01:03:27.347Z,28.55
2023-04-16T01:04:27.185Z,27.43
2023-04-16T01:05:27.179Z,30.69
2023-04-16T01:06:27.215Z,28.93
2023-04-16T01:07:27.240Z,29.72
2023-04-16T01:08:27.275Z,27.32
2023-04-16T01:09:27.322Z,28.49
2023-04-16T01:10:27.354Z,27.93
2023-04-16T01:11:27.404Z,28.69
2023-04-16T01:12:27.426Z,26.96
2023-04-16T01:13:27.458Z,27.69
2023-04-16T01:14:27.481Z,27.59
2023-04-16T01:15:27.516Z,29.81
2023-04-16T01:16:27.648Z,26.58
2023-04-16T01:17:27.651Z,28.06
2023-04-16T01:18:27.641Z,27.39
2023-04-16T01:19:27.685Z,26.55
2023-04-16T01:20:27.722Z,28.10
2023-04-16T01:21:27.761Z,27.35
2023-04-16T01:22:27.797Z,26.30
2023-04-16T01:23:27.833Z,27.94
2023-04-16T01:24:27.876Z,26.12
2023-04-16T01:25:27.907Z,28.22
2023-04-16T01:26:27.952Z,29.08
2023-04-16T01:27:27.994Z,25.97
2023-04-16T01:28:28.118Z,28.77
2023-04-16T01:29:28.059Z,26.19
2023-04-16T01:30:28.104Z,28.85
2023-04-16T01:31:28.192Z,25.14
2023-04-16T01:32:28.270Z,25.00
2023-04-16T01:33:28.216Z,26.85
2023-04-16T01:34:28.251Z,27.53
2023-04-16T01:35:28.284Z,29.32
2023-04-16T01:36:28.318Z,26.39
2023-04-16T01:37:28.368Z,26.98
2023-04-16T01:38:28.396Z,27.35
2023-04-16T01:39:28.440Z,25.55
2023-04-16T01:40:28.486Z,26.59
2023-04-16T01:41:28.521Z,25.98
2023-04-16T01:42:28.559Z,27.69
2023-04-16T01:43:28.593Z,28.15
2023-04-16T01:44:28.626Z,26.86
2023-04-16T01:45:28.670Z,26.50
2023-04-16T01:46:28.758Z,27.08
2023-04-16T01:47:28.787Z,25.60
2023-04-16T01:48:28.799Z,26.17
2023-04-16T01:49:28.817Z,27.57
2023-04-16T01:50:28.865Z,27.99
2023-04-16T01:51:28.900Z,26.85
2023-04-16T01:52:28.944Z,30.14
2023-04-16T01:53:28.987Z,27.42
2023-04-16T01:54:29.019Z,27.04
2023-04-16T01:55:29.055Z,26.62
2023-04-16T01:56:29.094Z,27.40
2023-04-16T01:57:29.131Z,27.39
2023-04-16T01:58:29.172Z,26.56
2023-04-16T01:59:29.278Z,25.50
2023-04-16T02:00:29.245Z,26.89
2023-04-16T02:01:29.345Z,27.28
2023-04-16T02:02:29.477Z,28.43
2023-04-16T02:03:29.470Z,28.95
2023-04-16T02:04:29.403Z,25.91
2023-04-16T02:05:29.433Z,28.26
2023-04-16T02:06:29.463Z,29.38
2023-04-16T02:07:29.520Z,27.81
2023-04-16T02:08:29.554Z,28.38
2023-04-16T02:09:29.584Z,29.51
2023-04-16T02:10:29.615Z,28.57
2023-04-16T02:11:29.660Z,29.55
2023-04-16T02:12:29.699Z,25.54
2023-04-16T02:13:29.726Z,26.16
2023-04-16T02:14:29.765Z,26.41
2023-04-16T02:15:29.788Z,27.27
2023-04-16T02:16:29.885Z,27.85
2023-04-16T02:17:29.890Z,27.66
2023-04-16T02:18:29.904Z,26.88
2023-04-16T02:19:29.943Z,28.22
2023-04-16T02:20:29.989Z,28.57
2023-04-16T02:21:30.022Z,30.41
2023-04-16T02:22:30.047Z,28.39
2023-04-16T02:23:30.101Z,26.86
2023-04-16T02:24:30.129Z,25.50
2023-04-16T02:25:30.162Z,27.13
2023-04-16T02:26:30.200Z,29.43
2023-04-16T02:27:30.239Z,31.25
2023-04-16T02:28:30.270Z,27.03
2023-04-16T02:29:30.319Z,29.44
2023-04-16T02:30:30.346Z,27.30
2023-04-16T02:31:30.460Z,26.53
2023-04-16T02:32:30.464Z,27.21
2023-04-16T02:33:30.467Z,27.38
2023-04-16T02:34:30.504Z,29.48
2023-04-16T02:35:30.532Z,27.79
2023-04-16T02:36:30.575Z,27.65
2023-04-16T02:37:30.613Z,27.68
2023-04-16T02:38:30.645Z,27.39
2023-04-16T02:39:30.677Z,27.76
2023-04-16T02:40:30.710Z,27.23
2023-04-16T02:41:30.747Z,27.68
2023-04-16T02:42:30.780Z,25.18
2023-04-16T02:43:30.824Z,27.37
2023-04-16T02:44:30.853Z,25.70
2023-04-16T02:45:30.873Z,27.05
2023-04-16T02:46:31.013Z,26.15
2023-04-16T02:47:31.027Z,25.46
2023-04-16T02:48:31.006Z,25.00
2023-04-16T02:49:31.036Z,27.60
2023-04-16T02:50:31.074Z,28.33
2023-04-16T02:51:31.107Z,29.03
2023-04-16T02:52:31.139Z,31.28
2023-04-16T02:53:31.179Z,28.62
2023-04-16T02:54:31.217Z,27.98
2023-04-16T02:55:31.253Z,28.67
2023-04-16T02:56:31.285Z,28.95
2023-04-16T02:57:31.326Z,29.53
2023-04-16T02:58:31.357Z,31.77
2023-04-16T02:59:31.418Z,30.72
2023-04-16T03:00:31.441Z,27.50
2023-04-16T03:01:31.527Z,28.00
2023-04-16T03:02:31.678Z,29.34
2023-04-16T03:03:31.569Z,29.87
2023-04-16T03:04:31.634Z,30.06
2023-04-16T03:05:31.657Z,27.16
2023-04-16T03:06:31.709Z,28.33
2023-04-16T03:07:31.717Z,29.70
2023-04-16T03:08:31.758Z,29.09
2023-04-16T03:09:31.806Z,29.26
2023-04-16T03:10:31.831Z,30.67
2023-04-16T03:11:31.881Z,29.72
2023-04-16T03:12:31.921Z,29.18
2023-04-16T03:13:31.952Z,28.84
2023-04-16T03:14:32.000Z,28.10
2023-04-16T03:15:32.078Z,29.22
2023-04-16T03:16:32.072Z,28.55
2023-04-16T03:17:32.144Z,27.35
2023-04-16T03:18:32.180Z,27.78
2023-04-16T03:19:32.195Z,26.73
2023-04-16T03:20:32.231Z,29.80
2023-04-16T03:21:32.269Z,28.71
2023-04-16T03:22:32.303Z,27.68
2023-04-16T03:23:32.348Z,30.09
2023-04-16T03:24:32.374Z,28.80
2023-04-16T03:25:32.406Z,29.31
2023-04-16T03:26:32.470Z,28.05
2023-04-16T03:27:32.480Z,28.95
2023-04-16T03:28:32.525Z,27.57
2023-04-16T03:29:32.555Z,27.21
2023-04-16T03:30:32.596Z,27.31
2023-04-16T03:31:32.675Z,27.59
2023-04-16T03:32:32.687Z,28.35
2023-04-16T03:33:32.697Z,28.51
2023-04-16T03:34:32.748Z,30.53
2023-04-16T03:35:32.768Z,28.60
2023-04-16T03:36:32.798Z,28.01
2023-04-16T03:37:32.860Z,27.81
2023-04-16T03:38:32.884Z,26.25
2023-04-16T03:39:32.924Z,28.55
2023-04-16T03:40:32.952Z,26.89
2023-04-16T03:41:33.019Z,27.97
2023-04-16T03:42:33.027Z,27.14
2023-04-16T03:43:33.079Z,26.34
2023-04-16T03:44:33.108Z,29.19
2023-04-16T03:45:33.145Z,30.51
2023-04-16T03:46:33.248Z,31.02
2023-04-16T03:47:33.279Z,27.37
2023-04-16T03:48:33.260Z,27.45
2023-04-16T03:49:33.294Z,27.64
2023-04-16T03:50:33.319Z,27.84
2023-04-16T03:51:33.514Z,26.64
2023-04-16T03:52:33.408Z,28.83
2023-04-16T03:53:33.456Z,27.36
2023-04-16T03:54:33.488Z,28.83
2023-04-16T03:55:33.533Z,26.64
2023-04-16T03:56:33.570Z,25.47
2023-04-16T03:57:33.596Z,26.37
2023-04-16T03:58:33.646Z,27.54
2023-04-16T03:59:33.689Z,26.65
2023-04-16T04:00:33.720Z,28.48
2023-04-16T04:01:33.773Z,26.56
2023-04-16T04:02:33.898Z,27.52
2023-04-16T04:03:34.064Z,26.70
2023-04-16T04:04:34.031Z,29.37
2023-04-16T04:05:33.927Z,26.68
2023-04-16T04:06:33.968Z,28.08
2023-04-16T04:07:34.000Z,28.33
2023-04-16T04:08:34.050Z,27.71
2023-04-16T04:09:34.092Z,28.58
2023-04-16T04:10:34.124Z,27.42
2023-04-16T04:11:34.163Z,27.66
2023-04-16T04:12:34.204Z,30.16
2023-04-16T04:13:34.236Z,29.42
2023-04-16T04:14:34.284Z,29.39
2023-04-16T04:15:34.330Z,29.17
2023-04-16T04:16:34.370Z,26.92
2023-04-16T04:17:34.424Z,29.25
2023-04-16T04:18:34.457Z,30.59
2023-04-16T04:19:34.487Z,26.97
2023-04-16T04:20:34.535Z,27.85
2023-04-16T04:21:34.571Z,29.01
2023-04-16T04:22:34.617Z,28.85
2023-04-16T04:23:34.649Z,30.36
2023-04-16T04:24:34.695Z,29.87
2023-04-16T04:25:34.738Z,29.59
2023-04-16T04:26:34.858Z,31.17
2023-04-16T04:27:34.815Z,30.52
2023-04-16T04:28:34.872Z,28.84
2023-04-16T04:29:34.907Z,30.02
2023-04-16T04:30:34.962Z,29.76
2023-04-16T04:31:35.026Z,28.00
2023-04-16T04:32:35.076Z,27.70
2023-04-16T04:33:35.079Z,26.31
2023-04-16T04:34:35.124Z,28.66
2023-04-16T04:35:35.164Z,29.35
2023-04-16T04:36:35.199Z,28.65
2023-04-16T04:37:35.252Z,30.08
2023-04-16T04:38:35.288Z,27.80
2023-04-16T04:39:35.325Z,27.09
2023-04-16T04:40:35.368Z,27.89
2023-04-16T04:41:35.412Z,29.50
2023-04-16T04:42:35.446Z,27.67
2023-04-16T04:43:35.495Z,28.41
2023-04-16T04:44:35.552Z,27.66
2023-04-16T04:45:35.576Z,26.67
2023-04-16T04:46:35.626Z,28.93
2023-04-16T04:47:35.706Z,31.06
2023-04-16T04:48:35.717Z,28.41
2023-04-16T04:49:35.740Z,28.02
2023-04-16T04:50:35.791Z,27.06
2023-04-16T04:51:35.822Z,26.46
2023-04-16T04:52:35.869Z,26.87
2023-04-16T04:53:35.906Z,28.35
2023-04-16T04:54:35.941Z,29.84
2023-04-16T04:55:35.984Z,28.46
2023-04-16T04:56:36.022Z,25.49
2023-04-16T04:57:36.059Z,27.28
2023-04-16T04:58:36.123Z,26.50
2023-04-16T04:59:36.142Z,28.25
2023-04-16T05:00:36.193Z,27.49
2023-04-16T05:01:36.279Z,28.33
2023-04-16T05:02:36.359Z,29.66
2023-04-16T05:03:36.453Z,25.33
2023-04-16T05:04:36.385Z,26.84
2023-04-16T05:05:36.379Z,26.55
2023-04-16T05:06:36.424Z,27.29
2023-04-16T05:07:36.464Z,28.05
2023-04-16T05:08:36.518Z,25.36
2023-04-16T05:09:36.542Z,26.15
2023-04-16T05:10:36.575Z,26.42
2023-04-16T05:11:36.612Z,28.24
2023-04-16T05:12:36.657Z,28.02
2023-04-16T05:13:36.687Z,29.68
2023-04-16T05:14:36.732Z,27.42
2023-04-16T05:15:36.789Z,27.25
2023-04-16T05:16:36.860Z,27.49
2023-04-16T05:17:36.879Z,28.01
2023-04-16T05:18:36.888Z,29.13
2023-04-16T05:19:36.926Z,29.31
2023-04-16T05:20:36.959Z,28.05
2023-04-16T05:21:37.007Z,27.93
2023-04-16T05:22:37.061Z,27.03
2023-04-16T05:23:37.091Z,26.85
2023-04-16T05:24:37.144Z,26.44
2023-04-16T05:25:37.167Z,27.13
2023-04-16T05:26:37.220Z,28.64
2023-04-16T05:27:37.276Z,26.92
2023-04-16T05:28:37.304Z,28.31
2023-04-16T05:29:37.350Z,26.55
2023-04-16T05:30:37.434Z,27.40
2023-04-16T05:31:37.438Z,29.20
2023-04-16T05:32:37.527Z,28.72
2023-04-16T05:33:37.532Z,26.20
2023-04-16T05:34:37.570Z,27.20
2023-04-16T05:35:37.612Z,27.12
2023-04-16T05:36:37.648Z,26.77
2023-04-16T05:37:37.692Z,25.75
2023-04-16T05:38:37.749Z,27.46
2023-04-16T05:39:37.772Z,29.02
2023-04-16T05:40:37.813Z,28.22
2023-04-16T05:41:37.862Z,27.25
2023-04-16T05:42:37.898Z,25.75
2023-04-16T05:43:37.934Z,28.68
2023-04-16T05:44:37.980Z,26.94
2023-04-16T05:45:38.015Z,25.94
2023-04-16T05:46:38.179Z,28.98
2023-04-16T05:47:38.176Z,30.45
2023-04-16T05:48:38.161Z,26.90
2023-04-16T05:49:38.191Z,26.36
2023-04-16T05:50:38.232Z,26.06
2023-04-16T05:51:38.265Z,27.62
2023-04-16T05:52:38.301Z,28.65
2023-04-16T05:53:38.354Z,26.16
2023-04-16T05:54:38.383Z,27.65
2023-04-16T05:55:38.424Z,25.69
2023-04-16T05:56:38.467Z,30.54
2023-04-16T05:57:38.545Z,25.93
2023-04-16T05:58:38.556Z,27.15
2023-04-16T05:59:38.593Z,26.91
2023-04-16T06:00:38.646Z,28.34
2023-04-16T06:01:38.667Z,26.68
2023-04-16T06:02:39.037Z,28.63
2023-04-16T06:03:38.949Z,27.21
2023-04-16T06:04:38.805Z,29.03
2023-04-16T06:05:38.975Z,26.85
2023-04-16T06:06:38.893Z,27.20
2023-04-16T06:07:38.926Z,27.99
2023-04-16T06:08:38.979Z,31.03
2023-04-16T06:09:39.010Z,27.66
2023-04-16T06:10:39.046Z,29.54
2023-04-16T06:11:39.101Z,30.19
2023-04-16T06:12:39.148Z,25.71
2023-04-16T06:13:39.173Z,26.69
2023-04-16T06:14:39.228Z,26.07
2023-04-16T06:15:39.278Z,27.24
2023-04-16T06:16:39.304Z,28.93
2023-04-16T06:17:39.372Z,27.67
2023-04-16T06:18:39.385Z,27.03
2023-04-16T06:19:39.432Z,27.86
2023-04-16T06:20:39.475Z,26.97
2023-04-16T06:21:39.513Z,30.01
2023-04-16T06:22:39.557Z,28.89
2023-04-16T06:23:39.593Z,25.83
2023-04-16T06:24:39.625Z,28.53
2023-04-16T06:25:39.679Z,28.20
2023-04-16T06:26:39.717Z,27.11
2023-04-16T06:27:39.754Z,28.73
2023-04-16T06:28:39.812Z,27.60
2023-04-16T06:29:41.693Z,27.41
2023-04-16T06:30:39.887Z,27.30
2023-04-16T06:31:39.985Z,25.33
2023-04-16T06:32:40.026Z,26.95
2023-04-16T06:33:40.020Z,27.79
2023-04-16T06:34:40.075Z,26.39
2023-04-16T06:35:40.130Z,27.16
2023-04-16T06:36:40.148Z,27.41
2023-04-16T06:37:40.198Z,27.79
2023-04-16T06:38:40.249Z,28.49
2023-04-16T06:39:40.279Z,27.56
2023-04-16T06:40:40.333Z,29.02
2023-04-16T06:41:40.363Z,26.98
2023-04-16T06:42:40.528Z,29.29
2023-04-16T06:43:40.463Z,27.79
2023-04-16T06:44:40.490Z,31.11
2023-04-16T06:45:40.537Z,28.01
2023-04-16T06:46:40.633Z,28.05
2023-04-16T06:47:40.761Z,26.89
2023-04-16T06:48:40.676Z,28.19
2023-04-16T06:49:40.708Z,26.79
2023-04-16T06:50:40.766Z,28.45
2023-04-16T06:51:40.790Z,28.39
2023-04-16T06:52:40.843Z,31.98
2023-04-16T06:53:40.892Z,26.61
2023-04-16T06:54:40.916Z,26.76
2023-04-16T06:55:40.971Z,27.32
2023-04-16T06:56:41.010Z,26.99
2023-04-16T06:57:41.044Z,27.07
2023-04-16T06:58:41.109Z,28.15
2023-04-16T06:59:41.133Z,26.61
2023-04-16T07:00:41.222Z,27.91
2023-04-16T07:01:41.220Z,28.20
2023-04-16T07:02:41.402Z,29.37
2023-04-16T07:03:41.452Z,27.64
2023-04-16T07:04:41.334Z,27.07
2023-04-16T07:05:41.377Z,30.84
2023-04-16T07:06:41.411Z,29.06
2023-04-16T07:07:41.834Z,25.84
2023-04-16T07:08:41.508Z,28.23
2023-04-16T07:09:41.536Z,33.07
2023-04-16T07:10:41.577Z,28.88
2023-04-16T07:11:41.619Z,29.19
2023-04-16T07:12:41.665Z,28.62
2023-04-16T07:13:41.741Z,30.46
2023-04-16T07:14:41.724Z,29.82
2023-04-16T07:15:41.779Z,27.42
2023-04-16T07:16:41.832Z,28.94
2023-04-16T07:17:41.842Z,27.43
2023-04-16T07:18:41.881Z,26.37
2023-04-16T07:19:41.921Z,28.11
2023-04-16T07:20:41.960Z,27.80
2023-04-16T07:21:42.012Z,28.04
2023-04-16T07:22:42.043Z,25.53
2023-04-16T07:23:42.072Z,30.65
2023-04-16T07:24:42.121Z,28.90
2023-04-16T07:25:42.478Z,27.53
2023-04-16T07:26:42.202Z,27.17
2023-04-16T07:27:42.238Z,28.17
2023-04-16T07:28:42.284Z,26.31
2023-04-16T07:29:42.314Z,26.03
2023-04-16T07:30:42.368Z,26.22
2023-04-16T07:31:42.435Z,25.94
2023-04-16T07:32:42.486Z,28.50
2023-04-16T07:33:42.486Z,27.78
2023-04-16T07:34:42.553Z,28.16
2023-04-16T07:35:42.578Z,28.34
2023-04-16T07:36:42.604Z,29.30
2023-04-16T07:37:42.648Z,28.19
2023-04-16T07:38:42.704Z,27.01
2023-04-16T07:39:42.728Z,28.09
2023-04-16T07:40:42.776Z,25.95
2023-04-16T07:41:42.822Z,28.41
2023-04-16T07:42:42.858Z,27.20
2023-04-16T07:43:42.894Z,29.13
2023-04-16T07:44:42.945Z,28.00
2023-04-16T07:45:43.016Z,26.76
2023-04-16T07:46:47.265Z,30.53
2023-04-16T07:47:43.046Z,30.60
2023-04-16T07:48:43.013Z,30.54
2023-04-16T07:49:42.997Z,31.10
2023-04-16T07:50:42.987Z,29.07
2023-04-16T07:51:42.987Z,28.71
2023-04-16T07:52:42.973Z,29.24
2023-04-16T07:53:42.961Z,29.88
2023-04-16T07:54:42.949Z,29.53
2023-04-16T07:55:42.956Z,30.01
2023-04-16T07:56:42.935Z,28.88
2023-04-16T07:57:42.912Z,29.08
2023-04-16T07:58:42.934Z,31.05
2023-04-16T07:59:42.892Z,29.07
2023-04-16T08:00:42.889Z,28.45
2023-04-16T08:01:42.875Z,28.85
2023-04-16T08:02:42.981Z,28.41
2023-04-16T08:03:43.097Z,30.15
2023-04-16T08:04:43.243Z,30.24
2023-04-16T08:05:43.002Z,29.58
2023-04-16T08:06:43.039Z,27.93
2023-04-16T08:07:43.082Z,28.67
2023-04-16T08:08:43.122Z,29.53
2023-04-16T08:09:43.243Z,28.05
2023-04-16T08:10:43.187Z,28.45
2023-04-16T08:11:43.237Z,29.46
2023-04-16T08:12:43.283Z,29.08
2023-04-16T08:13:43.312Z,28.04
2023-04-16T08:14:43.345Z,28.83
2023-04-16T08:15:43.433Z,29.30
2023-04-16T08:16:43.468Z,28.80
2023-04-16T08:17:43.524Z,29.22
2023-04-16T08:18:43.561Z,31.17
2023-04-16T08:19:43.549Z,31.75
2023-04-16T08:20:43.628Z,28.50
2023-04-16T08:21:43.638Z,27.86
2023-04-16T08:22:43.669Z,30.10
2023-04-16T08:23:43.706Z,28.68
2023-04-16T08:24:43.750Z,28.85
2023-04-16T08:25:43.791Z,29.98
2023-04-16T08:26:43.820Z,28.72
2023-04-16T08:27:43.853Z,32.25
2023-04-16T08:28:43.897Z,30.41
2023-04-16T08:29:43.934Z,30.01
2023-04-16T08:30:43.974Z,29.71
2023-04-16T08:31:44.075Z,29.63
2023-04-16T08:32:44.103Z,29.89
2023-04-16T08:33:44.108Z,29.59
2023-04-16T08:34:44.111Z,27.54
2023-04-16T08:35:44.145Z,28.78
2023-04-16T08:36:44.185Z,28.92
2023-04-16T08:37:44.218Z,30.76
2023-04-16T08:38:44.259Z,29.81
2023-04-16T08:39:44.297Z,30.55
2023-04-16T08:40:44.338Z,29.59
2023-04-16T08:41:44.397Z,31.30
2023-04-16T08:42:44.401Z,28.62
2023-04-16T08:43:44.494Z,30.65
2023-04-16T08:44:44.473Z,28.64
2023-04-16T08:45:44.508Z,27.88
2023-04-16T08:46:44.683Z,29.34
2023-04-16T08:47:44.586Z,31.09
2023-04-16T08:48:44.620Z,29.31
2023-04-16T08:49:44.635Z,27.73
2023-04-16T08:50:44.673Z,28.70
2023-04-16T08:51:44.704Z,28.57
2023-04-16T08:52:44.745Z,28.81
2023-04-16T08:53:44.769Z,28.31
2023-04-16T08:54:44.802Z,30.55
2023-04-16T08:55:44.839Z,28.61
2023-04-16T08:56:44.868Z,29.30
2023-04-16T08:57:44.914Z,26.73
2023-04-16T08:58:44.942Z,28.62
2023-04-16T08:59:44.999Z,25.27
2023-04-16T09:00:45.007Z,29.10
2023-04-16T09:01:45.076Z,27.69
2023-04-16T09:02:45.148Z,27.94
2023-04-16T09:03:45.245Z,29.69
2023-04-16T09:04:45.211Z,29.16
2023-04-16T09:05:45.172Z,29.09
2023-04-16T09:06:45.194Z,29.00
2023-04-16T09:07:45.226Z,29.19
2023-04-16T09:08:45.262Z,31.71
2023-04-16T09:09:45.292Z,30.75
2023-04-16T09:10:45.322Z,31.41
2023-04-16T09:11:45.347Z,28.89
2023-04-16T09:12:45.373Z,31.13
2023-04-16T09:13:45.402Z,29.93
2023-04-16T09:14:45.433Z,29.94
2023-04-16T09:15:45.458Z,30.30
2023-04-16T09:16:45.643Z,30.61
2023-04-16T09:17:45.544Z,32.66
2023-04-16T09:18:45.545Z,28.60
2023-04-16T09:19:45.578Z,29.25
2023-04-16T09:20:45.598Z,29.70
2023-04-16T09:21:45.626Z,28.45
2023-04-16T09:22:45.660Z,29.07
2023-04-16T09:23:45.703Z,29.79
2023-04-16T09:24:45.714Z,28.87
2023-04-16T09:25:45.742Z,27.34
2023-04-16T09:26:45.764Z,31.42
2023-04-16T09:27:45.793Z,29.82
2023-04-16T09:28:45.834Z,28.77
2023-04-16T09:29:45.847Z,30.75
2023-04-16T09:30:45.879Z,30.31
2023-04-16T09:31:45.927Z,31.68
2023-04-16T09:32:45.968Z,29.94
2023-04-16T09:33:45.948Z,31.88
2023-04-16T09:34:45.974Z,31.83
2023-04-16T09:35:46.000Z,28.99
2023-04-16T09:36:46.048Z,30.74
2023-04-16T09:37:46.116Z,31.91
2023-04-16T09:38:46.158Z,29.53
2023-04-16T09:39:46.210Z,28.55
2023-04-16T09:40:46.261Z,31.05
2023-04-16T09:41:46.310Z,29.48
2023-04-16T09:42:46.347Z,31.45
2023-04-16T09:43:46.404Z,29.18
2023-04-16T09:44:46.457Z,32.40
2023-04-16T09:45:46.556Z,32.71
2023-04-16T09:46:46.578Z,33.54
2023-04-16T09:47:46.700Z,31.45
2023-04-16T09:48:46.664Z,31.37
2023-04-16T09:49:46.705Z,31.69
2023-04-16T09:50:46.769Z,30.61
2023-04-16T09:51:46.835Z,32.43
2023-04-16T09:52:46.876Z,32.29
2023-04-16T09:53:46.930Z,34.63
2023-04-16T09:54:46.986Z,32.58
2023-04-16T09:55:47.051Z,32.68
2023-04-16T09:56:47.082Z,33.77
2023-04-16T09:57:47.131Z,30.15
2023-04-16T09:58:47.177Z,33.35
2023-04-16T09:59:47.238Z,32.76
2023-04-16T10:00:47.305Z,32.23
2023-04-16T10:01:47.413Z,31.97
2023-04-16T10:02:49.239Z,32.69
2023-04-16T10:03:47.581Z,33.83
2023-04-16T10:04:47.536Z,33.54
2023-04-16T10:05:47.351Z,33.27
2023-04-16T10:06:47.371Z,31.05
2023-04-16T10:07:47.348Z,31.90
2023-04-16T10:08:49.610Z,31.83
2023-04-16T10:09:47.335Z,31.96
2023-04-16T10:10:47.312Z,32.19
2023-04-16T10:11:47.300Z,32.76
2023-04-16T10:12:47.286Z,32.73
2023-04-16T10:13:47.317Z,33.74
2023-04-16T10:14:48.941Z,34.55
2023-04-16T10:15:47.264Z,34.69
2023-04-16T10:16:47.307Z,34.85
2023-04-16T10:17:47.323Z,34.12
2023-04-16T10:18:47.278Z,34.32
2023-04-16T10:19:47.234Z,33.37
2023-04-16T10:20:47.221Z,33.87
2023-04-16T10:21:47.229Z,32.64
2023-04-16T10:22:47.207Z,33.27
2023-04-16T10:23:47.200Z,34.13
2023-04-16T10:24:47.195Z,33.17
2023-04-16T10:25:47.190Z,33.57
2023-04-16T10:26:47.176Z,34.60
2023-04-16T10:27:47.180Z,34.90
2023-04-16T10:28:47.160Z,33.74
2023-04-16T10:29:47.153Z,34.35
2023-04-16T10:30:47.185Z,33.00
2023-04-16T10:31:47.168Z,33.79
2023-04-16T10:32:47.148Z,34.25
2023-04-16T10:33:47.109Z,35.60
2023-04-16T10:34:47.090Z,33.63
2023-04-16T10:35:52.445Z,32.93
2023-04-16T10:36:48.083Z,33.14
2023-04-16T10:37:47.072Z,33.57
2023-04-16T10:38:47.050Z,33.92
2023-04-16T10:39:47.039Z,34.89
2023-04-16T10:40:47.023Z,34.44
2023-04-16T10:41:47.009Z,33.32
2023-04-16T10:42:47.009Z,33.40
2023-04-16T10:43:46.997Z,34.94
2023-04-16T10:44:47.004Z,34.28
2023-04-16T10:45:47.079Z,33.14
2023-04-16T10:46:47.117Z,34.15
2023-04-16T10:47:47.207Z,34.65
2023-04-16T10:48:50.341Z,35.69
2023-04-16T10:49:47.216Z,35.76
2023-04-16T10:50:47.213Z,34.80
2023-04-16T10:51:47.194Z,34.82
2023-04-16T10:52:47.182Z,34.10
2023-04-16T10:53:47.170Z,35.89
2023-04-16T10:54:47.156Z,34.67
2023-04-16T10:55:47.139Z,35.30
2023-04-16T10:56:47.124Z,33.66
2023-04-16T10:57:47.131Z,36.16
2023-04-16T10:58:47.105Z,34.96
2023-04-16T10:59:47.109Z,33.88
2023-04-16T11:00:47.094Z,34.41
2023-04-16T11:01:47.141Z,33.80
2023-04-16T11:02:47.279Z,33.77
2023-04-16T11:03:47.150Z,34.20
2023-04-16T11:04:47.342Z,34.40
2023-04-16T11:05:47.052Z,35.36
2023-04-16T11:06:47.019Z,34.69
2023-04-16T11:07:48.018Z,34.68
2023-04-16T11:08:54.445Z,35.77
2023-04-16T11:09:48.026Z,35.92
2023-04-16T11:10:46.994Z,36.35
2023-04-16T11:11:46.980Z,36.55
2023-04-16T11:12:47.002Z,35.67
2023-04-16T11:13:46.976Z,37.67
2023-04-16T11:14:46.979Z,35.65
2023-04-16T11:15:46.993Z,36.32
2023-04-16T11:16:46.960Z,35.39
2023-04-16T11:17:47.002Z,35.68
2023-04-16T11:18:50.856Z,36.85
2023-04-16T11:19:46.941Z,36.94
2023-04-16T11:20:46.929Z,37.14
2023-04-16T11:21:46.917Z,36.86
2023-04-16T11:22:46.926Z,37.21
2023-04-16T11:23:46.907Z,35.93
2023-04-16T11:24:46.896Z,36.40
2023-04-16T11:25:46.896Z,38.12
2023-04-16T11:26:46.878Z,35.86
2023-04-16T11:27:46.894Z,37.54
2023-04-16T11:28:46.869Z,37.00
2023-04-16T11:29:47.634Z,36.04
2023-04-16T11:30:46.921Z,37.09
2023-04-16T11:31:46.909Z,36.20
2023-04-16T11:32:46.941Z,37.60
2023-04-16T11:33:46.814Z,38.27
2023-04-16T11:34:46.802Z,36.41
2023-04-16T11:35:46.808Z,37.05
2023-04-16T11:36:46.792Z,37.68
2023-04-16T11:37:46.806Z,36.35
2023-04-16T11:38:46.765Z,36.63
2023-04-16T11:39:46.749Z,36.46
2023-04-16T11:40:47.742Z,36.62
2023-04-16T11:41:46.745Z,36.93
2023-04-16T11:42:46.732Z,37.16
2023-04-16T11:43:46.724Z,38.14
2023-04-16T11:44:46.704Z,37.68
2023-04-16T11:45:46.689Z,37.57
2023-04-16T11:46:46.722Z,38.44
2023-04-16T11:47:46.741Z,39.43
2023-04-16T11:48:46.664Z,38.44
2023-04-16T11:49:46.652Z,39.04
2023-04-16T11:50:46.648Z,38.34
2023-04-16T11:51:46.630Z,37.15
2023-04-16T11:52:46.629Z,36.71
2023-04-16T11:53:46.625Z,38.10
2023-04-16T11:54:46.606Z,38.96
2023-04-16T11:55:46.606Z,39.18
2023-04-16T11:56:46.608Z,39.32
2023-04-16T11:57:46.584Z,36.21
2023-04-16T11:58:46.578Z,38.87
2023-04-16T12:00:01.742Z,36.90
2023-04-16T12:00:47.564Z,37.11
2023-04-16T12:01:46.580Z,37.67
2023-04-16T12:02:46.717Z,38.25
2023-04-16T12:03:46.856Z,38.36
2023-04-16T12:04:46.658Z,39.67
2023-04-16T12:05:46.507Z,39.64
2023-04-16T12:06:46.681Z,39.24
2023-04-16T12:07:46.489Z,37.97
2023-04-16T12:08:46.508Z,38.86
2023-04-16T12:09:46.464Z,39.16
2023-04-16T12:10:46.453Z,40.78
2023-04-16T12:11:46.440Z,37.83
2023-04-16T12:12:46.429Z,37.75
2023-04-16T12:13:46.426Z,38.51
2023-04-16T12:14:46.407Z,37.49
2023-04-16T12:15:46.400Z,38.16
2023-04-16T12:16:46.434Z,38.47
2023-04-16T12:17:46.461Z,40.42
2023-04-16T12:18:46.370Z,40.15
2023-04-16T12:19:46.363Z,38.84
2023-04-16T12:20:46.345Z,36.93
2023-04-16T12:21:46.341Z,39.42
2023-04-16T12:22:46.339Z,39.45
2023-04-16T12:23:46.329Z,40.93
2023-04-16T12:24:46.306Z,38.10
2023-04-16T12:25:46.302Z,39.84
2023-04-16T12:26:46.389Z,36.97
2023-04-16T12:27:46.287Z,41.67
2023-04-16T12:28:46.302Z,39.35
2023-04-16T12:29:47.068Z,39.07
2023-04-16T12:30:46.344Z,39.29
2023-04-16T12:31:46.342Z,40.23
2023-04-16T12:32:46.355Z,39.17
2023-04-16T12:33:46.376Z,40.68
2023-04-16T12:34:48.136Z,39.85
2023-04-16T12:35:46.375Z,39.30
2023-04-16T12:36:46.377Z,41.86
2023-04-16T12:37:46.348Z,40.83
2023-04-16T12:38:46.336Z,40.19
2023-04-16T12:39:47.903Z,40.07
2023-04-16T12:40:46.301Z,40.13
2023-04-16T12:41:46.296Z,40.15
2023-04-16T12:42:46.286Z,40.69
2023-04-16T12:43:46.265Z,40.30
2023-04-16T12:44:46.264Z,40.34
2023-04-16T12:45:46.279Z,40.51
2023-04-16T12:46:46.442Z,39.80
2023-04-16T12:47:46.322Z,42.00
2023-04-16T12:48:46.240Z,39.62
2023-04-16T12:49:47.080Z,39.95
2023-04-16T12:50:46.229Z,40.55
2023-04-16T12:51:46.201Z,37.29
2023-04-16T12:52:46.183Z,41.29